sensor_id;sensor_type;location;lat;lon;timestamp;pressure;altitude;pressure_sealevel;temperature;humidity
77120;BME280;66073;47.730;9.352;2023-05-07T00:01:43;96614.69;;;13.07;81.09
77120;BME280;66073;47.730;9.352;2023-05-07T00:04:09;96607.59;;;12.78;81.73
77120;BME280;66073;47.730;9.352;2023-05-07T00:06:35;96607.97;;;12.72;82.20
77120;BME280;66073;47.730;9.352;2023-05-07T00:09:00;96606.66;;;12.69;82.54
77120;BME280;66073;47.730;9.352;2023-05-07T00:11:27;96610.28;;;12.78;82.40
77120;BME280;66073;47.730;9.352;2023-05-07T00:13:52;96613.91;;;12.87;82.35
77120;BME280;66073;47.730;9.352;2023-05-07T00:16:18;96609.63;;;12.86;81.75
77120;BME280;66073;47.730;9.352;2023-05-07T00:18:43;96609.63;;;12.86;82.22
77120;BME280;66073;47.730;9.352;2023-05-07T00:21:10;96613.38;;;12.85;82.19
77120;BME280;66073;47.730;9.352;2023-05-07T00:23:36;96605.00;;;13.11;80.71
77120;BME280;66073;47.730;9.352;2023-05-07T00:26:01;96611.38;;;13.15;79.91
77120;BME280;66073;47.730;9.352;2023-05-07T00:28:27;96612.53;;;13.09;79.89
77120;BME280;66073;47.730;9.352;2023-05-07T00:30:52;96605.28;;;12.90;80.87
77120;BME280;66073;47.730;9.352;2023-05-07T00:33:18;96607.66;;;12.92;81.48
77120;BME280;66073;47.730;9.352;2023-05-07T00:35:45;96601.81;;;13.09;80.36
77120;BME280;66073;47.730;9.352;2023-05-07T00:38:11;96604.13;;;12.97;80.70
77120;BME280;66073;47.730;9.352;2023-05-07T00:40:36;96595.94;;;12.88;81.53
77120;BME280;66073;47.730;9.352;2023-05-07T00:43:01;96593.56;;;12.86;81.40
77120;BME280;66073;47.730;9.352;2023-05-07T00:45:28;96588.53;;;12.99;80.51
77120;BME280;66073;47.730;9.352;2023-05-07T00:47:55;96581.97;;;13.10;79.98
77120;BME280;66073;47.730;9.352;2023-05-07T00:50:22;96584.78;;;13.00;80.03
77120;BME280;66073;47.730;9.352;2023-05-07T00:52:48;96585.31;;;12.64;81.59
77120;BME280;66073;47.730;9.352;2023-05-07T00:55:14;96589.56;;;13.03;81.99
77120;BME280;66073;47.730;9.352;2023-05-07T00:57:41;96586.59;;;12.85;80.97
77120;BME280;66073;47.730;9.352;2023-05-07T01:00:08;96581.81;;;12.82;81.50
77120;BME280;66073;47.730;9.352;2023-05-07T01:02:40;96590.13;;;13.00;80.20
77120;BME280;66073;47.730;9.352;2023-05-07T01:05:12;96588.13;;;12.54;82.42
77120;BME280;66073;47.730;9.352;2023-05-07T01:07:40;96589.63;;;12.60;82.71
77120;BME280;66073;47.730;9.352;2023-05-07T01:10:07;96583.53;;;12.36;83.43
77120;BME280;66073;47.730;9.352;2023-05-07T01:12:35;96591.72;;;12.26;84.09
77120;BME280;66073;47.730;9.352;2023-05-07T01:15:03;96579.25;;;12.35;84.66
77120;BME280;66073;47.730;9.352;2023-05-07T01:17:39;96579.22;;;12.59;83.23
77120;BME280;66073;47.730;9.352;2023-05-07T01:20:06;96581.59;;;12.41;83.49
77120;BME280;66073;47.730;9.352;2023-05-07T01:22:34;96583.41;;;12.46;83.96
77120;BME280;66073;47.730;9.352;2023-05-07T01:25:03;96591.34;;;12.32;84.33
77120;BME280;66073;47.730;9.352;2023-05-07T01:27:28;96587.75;;;12.42;83.97
77120;BME280;66073;47.730;9.352;2023-05-07T01:29:54;96595.91;;;12.32;84.31
77120;BME280;66073;47.730;9.352;2023-05-07T01:32:32;96590.84;;;12.30;84.71
77120;BME280;66073;47.730;9.352;2023-05-07T01:35:01;96593.66;;;12.39;83.96
77120;BME280;66073;47.730;9.352;2023-05-07T01:37:29;96583.97;;;12.43;83.50
77120;BME280;66073;47.730;9.352;2023-05-07T01:39:55;96590.28;;;12.33;84.00
77120;BME280;66073;47.730;9.352;2023-05-07T01:42:21;96583.22;;;12.19;84.64
77120;BME280;66073;47.730;9.352;2023-05-07T01:44:47;96589.97;;;12.35;84.44
77120;BME280;66073;47.730;9.352;2023-05-07T01:47:14;96593.19;;;12.37;83.46
77120;BME280;66073;47.730;9.352;2023-05-07T01:49:41;96585.81;;;12.05;85.01
77120;BME280;66073;47.730;9.352;2023-05-07T01:52:09;96592.34;;;12.18;85.08
77120;BME280;66073;47.730;9.352;2023-05-07T01:54:35;96597.50;;;12.33;83.94
77120;BME280;66073;47.730;9.352;2023-05-07T01:57:01;96597.09;;;12.21;84.14
77120;BME280;66073;47.730;9.352;2023-05-07T01:59:26;96599.50;;;11.99;85.01
77120;BME280;66073;47.730;9.352;2023-05-07T02:01:52;96595.41;;;11.82;85.85
77120;BME280;66073;47.730;9.352;2023-05-07T02:04:17;96594.91;;;11.80;86.05
77120;BME280;66073;47.730;9.352;2023-05-07T02:06:44;96590.97;;;11.97;85.63
77120;BME280;66073;47.730;9.352;2023-05-07T02:09:10;96599.34;;;12.14;84.07
77120;BME280;66073;47.730;9.352;2023-05-07T02:11:36;96596.38;;;12.15;83.52
77120;BME280;66073;47.730;9.352;2023-05-07T02:14:02;96596.59;;;12.19;83.14
77120;BME280;66073;47.730;9.352;2023-05-07T02:16:27;96592.72;;;12.30;82.69
77120;BME280;66073;47.730;9.352;2023-05-07T02:18:52;96593.47;;;12.12;82.81
77120;BME280;66073;47.730;9.352;2023-05-07T02:21:18;96591.13;;;11.81;84.60
77120;BME280;66073;47.730;9.352;2023-05-07T02:23:44;96592.69;;;11.87;85.08
77120;BME280;66073;47.730;9.352;2023-05-07T02:26:10;96593.88;;;12.00;84.57
77120;BME280;66073;47.730;9.352;2023-05-07T02:28:36;96597.31;;;12.48;83.09
77120;BME280;66073;47.730;9.352;2023-05-07T02:31:05;96596.06;;;11.98;83.21
77120;BME280;66073;47.730;9.352;2023-05-07T02:33:30;96600.53;;;12.03;83.46
77120;BME280;66073;47.730;9.352;2023-05-07T02:35:56;96596.31;;;11.97;83.72
77120;BME280;66073;47.730;9.352;2023-05-07T02:38:22;96599.63;;;11.88;83.84
77120;BME280;66073;47.730;9.352;2023-05-07T02:40:48;96597.34;;;12.01;83.52
77120;BME280;66073;47.730;9.352;2023-05-07T02:43:13;96593.66;;;11.97;83.22
77120;BME280;66073;47.730;9.352;2023-05-07T02:45:39;96595.06;;;11.89;83.21
77120;BME280;66073;47.730;9.352;2023-05-07T02:48:04;96593.88;;;11.76;84.10
77120;BME280;66073;47.730;9.352;2023-05-07T02:50:31;96593.75;;;11.86;84.33
77120;BME280;66073;47.730;9.352;2023-05-07T02:52:58;96596.94;;;11.88;82.92
77120;BME280;66073;47.730;9.352;2023-05-07T02:55:23;96595.63;;;11.86;82.62
77120;BME280;66073;47.730;9.352;2023-05-07T02:57:48;96597.91;;;11.74;82.19
77120;BME280;66073;47.730;9.352;2023-05-07T03:00:16;96590.81;;;11.59;83.98
77120;BME280;66073;47.730;9.352;2023-05-07T03:02:44;96591.19;;;11.76;83.17
77120;BME280;66073;47.730;9.352;2023-05-07T03:05:09;96594.22;;;11.36;84.39
77120;BME280;66073;47.730;9.352;2023-05-07T03:07:38;96591.16;;;11.19;85.41
77120;BME280;66073;47.730;9.352;2023-05-07T03:10:04;96594.59;;;11.24;86.32
77120;BME280;66073;47.730;9.352;2023-05-07T03:12:30;96597.94;;;11.40;85.84
77120;BME280;66073;47.730;9.352;2023-05-07T03:14:56;96601.88;;;11.48;84.58
77120;BME280;66073;47.730;9.352;2023-05-07T03:17:22;96600.25;;;11.18;85.25
77120;BME280;66073;47.730;9.352;2023-05-07T03:19:47;96595.06;;;10.98;86.58
77120;BME280;66073;47.730;9.352;2023-05-07T03:22:13;96590.47;;;11.08;87.05
77120;BME280;66073;47.730;9.352;2023-05-07T03:24:38;96596.06;;;11.07;86.64
77120;BME280;66073;47.730;9.352;2023-05-07T03:27:04;96593.06;;;11.13;86.23
77120;BME280;66073;47.730;9.352;2023-05-07T03:29:29;96601.22;;;10.98;86.63
77120;BME280;66073;47.730;9.352;2023-05-07T03:31:55;96595.59;;;11.00;87.05
77120;BME280;66073;47.730;9.352;2023-05-07T03:34:20;96599.94;;;11.24;86.27
77120;BME280;66073;47.730;9.352;2023-05-07T03:36:51;96602.53;;;11.01;85.82
77120;BME280;66073;47.730;9.352;2023-05-07T03:39:16;96610.63;;;10.90;86.50
77120;BME280;66073;47.730;9.352;2023-05-07T03:41:42;96600.59;;;10.67;86.77
77120;BME280;66073;47.730;9.352;2023-05-07T03:44:07;96607.56;;;10.63;87.52
77120;BME280;66073;47.730;9.352;2023-05-07T03:46:34;96604.81;;;10.78;87.15
77120;BME280;66073;47.730;9.352;2023-05-07T03:48:59;96606.44;;;10.74;85.77
77120;BME280;66073;47.730;9.352;2023-05-07T03:51:25;96612.81;;;10.78;85.88
77120;BME280;66073;47.730;9.352;2023-05-07T03:53:51;96614.84;;;10.97;85.55
77120;BME280;66073;47.730;9.352;2023-05-07T03:56:22;96615.03;;;10.66;85.48
77120;BME280;66073;47.730;9.352;2023-05-07T03:58:48;96611.84;;;10.64;87.04
77120;BME280;66073;47.730;9.352;2023-05-07T04:01:14;96616.91;;;10.66;86.68
77120;BME280;66073;47.730;9.352;2023-05-07T04:03:39;96620.31;;;10.76;86.08
77120;BME280;66073;47.730;9.352;2023-05-07T04:06:04;96625.16;;;10.69;85.86
77120;BME280;66073;47.730;9.352;2023-05-07T04:08:31;96634.50;;;10.72;85.06
77120;BME280;66073;47.730;9.352;2023-05-07T04:10:57;96636.91;;;10.73;84.53
77120;BME280;66073;47.730;9.352;2023-05-07T04:13:22;96631.34;;;10.60;85.34
77120;BME280;66073;47.730;9.352;2023-05-07T04:15:48;96632.06;;;10.70;85.60
77120;BME280;66073;47.730;9.352;2023-05-07T04:18:14;96631.97;;;10.90;84.64
77120;BME280;66073;47.730;9.352;2023-05-07T04:20:40;96635.56;;;11.10;83.95
77120;BME280;66073;47.730;9.352;2023-05-07T04:23:06;96625.41;;;11.12;82.95
77120;BME280;66073;47.730;9.352;2023-05-07T04:25:32;96626.56;;;11.34;82.22
77120;BME280;66073;47.730;9.352;2023-05-07T04:27:57;96624.59;;;11.16;82.70
77120;BME280;66073;47.730;9.352;2023-05-07T04:30:24;96633.69;;;11.15;82.56
77120;BME280;66073;47.730;9.352;2023-05-07T04:32:49;96633.59;;;11.25;82.98
77120;BME280;66073;47.730;9.352;2023-05-07T04:35:15;96629.13;;;11.50;82.48
77120;BME280;66073;47.730;9.352;2023-05-07T04:37:40;96630.28;;;11.67;81.59
77120;BME280;66073;47.730;9.352;2023-05-07T04:40:06;96624.13;;;11.38;82.03
77120;BME280;66073;47.730;9.352;2023-05-07T04:42:32;96627.03;;;11.41;82.38
77120;BME280;66073;47.730;9.352;2023-05-07T04:44:57;96624.84;;;11.49;82.74
77120;BME280;66073;47.730;9.352;2023-05-07T04:47:23;96616.91;;;11.38;82.86
77120;BME280;66073;47.730;9.352;2023-05-07T04:49:48;96617.94;;;11.42;82.49
77120;BME280;66073;47.730;9.352;2023-05-07T04:52:14;96626.03;;;11.37;82.12
77120;BME280;66073;47.730;9.352;2023-05-07T04:54:40;96622.78;;;11.69;82.58
77120;BME280;66073;47.730;9.352;2023-05-07T04:57:06;96626.22;;;12.04;80.67
77120;BME280;66073;47.730;9.352;2023-05-07T04:59:32;96623.97;;;11.87;81.67
77120;BME280;66073;47.730;9.352;2023-05-07T05:01:57;96629.69;;;12.04;80.75
77120;BME280;66073;47.730;9.352;2023-05-07T05:04:23;96631.28;;;12.05;80.92
77120;BME280;66073;47.730;9.352;2023-05-07T05:06:49;96622.59;;;11.32;83.52
77120;BME280;66073;47.730;9.352;2023-05-07T05:09:15;96629.28;;;11.29;84.96
77120;BME280;66073;47.730;9.352;2023-05-07T05:11:41;96640.56;;;11.21;85.80
77120;BME280;66073;47.730;9.352;2023-05-07T05:14:06;96644.34;;;11.49;85.33
77120;BME280;66073;47.730;9.352;2023-05-07T05:16:32;96647.69;;;11.31;85.57
77120;BME280;66073;47.730;9.352;2023-05-07T05:18:58;96661.13;;;11.26;86.19
77120;BME280;66073;47.730;9.352;2023-05-07T05:21:23;96664.63;;;11.21;86.74
77120;BME280;66073;47.730;9.352;2023-05-07T05:23:49;96663.13;;;11.44;86.04
77120;BME280;66073;47.730;9.352;2023-05-07T05:26:14;96653.28;;;11.34;86.35
77120;BME280;66073;47.730;9.352;2023-05-07T05:28:39;96667.41;;;11.74;85.41
77120;BME280;66073;47.730;9.352;2023-05-07T05:31:05;96672.25;;;11.67;85.14
77120;BME280;66073;47.730;9.352;2023-05-07T05:33:31;96669.63;;;11.96;84.72
77120;BME280;66073;47.730;9.352;2023-05-07T05:35:56;96673.28;;;12.05;84.34
77120;BME280;66073;47.730;9.352;2023-05-07T05:38:22;96669.69;;;12.38;82.59
77120;BME280;66073;47.730;9.352;2023-05-07T05:40:47;96674.16;;;12.48;81.18
77120;BME280;66073;47.730;9.352;2023-05-07T05:43:13;96670.03;;;12.98;79.52
77120;BME280;66073;47.730;9.352;2023-05-07T05:45:39;96674.69;;;13.11;77.81
77120;BME280;66073;47.730;9.352;2023-05-07T05:48:05;96672.22;;;13.14;78.07
77120;BME280;66073;47.730;9.352;2023-05-07T05:50:31;96674.59;;;12.97;78.76
77120;BME280;66073;47.730;9.352;2023-05-07T05:52:56;96672.19;;;12.96;79.95
77120;BME280;66073;47.730;9.352;2023-05-07T05:55:23;96672.41;;;12.99;79.64
77120;BME280;66073;47.730;9.352;2023-05-07T05:57:49;96674.97;;;13.28;79.22
77120;BME280;66073;47.730;9.352;2023-05-07T06:00:16;96670.56;;;13.18;79.52
77120;BME280;66073;47.730;9.352;2023-05-07T06:02:41;96677.72;;;13.23;78.23
77120;BME280;66073;47.730;9.352;2023-05-07T06:05:08;96672.22;;;13.33;77.73
77120;BME280;66073;47.730;9.352;2023-05-07T06:07:34;96681.97;;;13.24;78.99
77120;BME280;66073;47.730;9.352;2023-05-07T06:10:00;96682.00;;;13.75;76.86
77120;BME280;66073;47.730;9.352;2023-05-07T06:12:26;96680.88;;;13.62;76.91
77120;BME280;66073;47.730;9.352;2023-05-07T06:14:51;96669.25;;;14.13;75.88
77120;BME280;66073;47.730;9.352;2023-05-07T06:17:18;96676.84;;;14.38;74.24
77120;BME280;66073;47.730;9.352;2023-05-07T06:19:43;96670.50;;;14.48;72.67
77120;BME280;66073;47.730;9.352;2023-05-07T06:22:09;96667.09;;;14.42;72.36
77120;BME280;66073;47.730;9.352;2023-05-07T06:24:35;96672.97;;;14.58;72.26
77120;BME280;66073;47.730;9.352;2023-05-07T06:27:00;96673.03;;;14.94;70.88
77120;BME280;66073;47.730;9.352;2023-05-07T06:29:26;96681.50;;;15.01;71.16
77120;BME280;66073;47.730;9.352;2023-05-07T06:31:54;96676.38;;;15.13;70.78
77120;BME280;66073;47.730;9.352;2023-05-07T06:34:20;96681.50;;;14.19;74.31
77120;BME280;66073;47.730;9.352;2023-05-07T06:36:45;96684.00;;;14.56;74.32
77120;BME280;66073;47.730;9.352;2023-05-07T06:39:11;96686.63;;;14.48;74.41
77120;BME280;66073;47.730;9.352;2023-05-07T06:41:37;96687.41;;;14.48;73.68
77120;BME280;66073;47.730;9.352;2023-05-07T06:44:03;96695.72;;;14.87;73.01
77120;BME280;66073;47.730;9.352;2023-05-07T06:46:29;96690.72;;;15.08;72.58
77120;BME280;66073;47.730;9.352;2023-05-07T06:48:54;96691.38;;;15.27;72.09
77120;BME280;66073;47.730;9.352;2023-05-07T06:51:22;96686.88;;;15.01;73.10
77120;BME280;66073;47.730;9.352;2023-05-07T06:53:47;96694.38;;;15.62;70.99
77120;BME280;66073;47.730;9.352;2023-05-07T06:56:13;96694.41;;;15.70;70.35
77120;BME280;66073;47.730;9.352;2023-05-07T06:58:38;96685.09;;;15.99;69.56
77120;BME280;66073;47.730;9.352;2023-05-07T07:01:04;96692.88;;;15.20;69.03
77120;BME280;66073;47.730;9.352;2023-05-07T07:03:30;96689.09;;;15.21;69.52
77120;BME280;66073;47.730;9.352;2023-05-07T07:05:55;96702.06;;;15.19;72.38
77120;BME280;66073;47.730;9.352;2023-05-07T07:08:22;96692.50;;;15.13;73.01
77120;BME280;66073;47.730;9.352;2023-05-07T07:10:48;96708.81;;;15.16;72.75
77120;BME280;66073;47.730;9.352;2023-05-07T07:13:13;96703.34;;;15.57;72.56
77120;BME280;66073;47.730;9.352;2023-05-07T07:15:40;96706.75;;;15.49;72.07
77120;BME280;66073;47.730;9.352;2023-05-07T07:18:06;96707.44;;;15.77;71.69
77120;BME280;66073;47.730;9.352;2023-05-07T07:20:31;96705.94;;;15.62;71.48
77120;BME280;66073;47.730;9.352;2023-05-07T07:22:58;96703.81;;;15.37;70.92
77120;BME280;66073;47.730;9.352;2023-05-07T07:25:24;96707.94;;;15.57;71.44
77120;BME280;66073;47.730;9.352;2023-05-07T07:27:50;96693.78;;;15.96;69.64
77120;BME280;66073;47.730;9.352;2023-05-07T07:30:15;96696.84;;;15.80;70.68
77120;BME280;66073;47.730;9.352;2023-05-07T07:32:41;96700.50;;;16.07;69.32
77120;BME280;66073;47.730;9.352;2023-05-07T07:35:07;96693.66;;;16.23;68.50
77120;BME280;66073;47.730;9.352;2023-05-07T07:37:32;96699.53;;;16.03;70.07
77120;BME280;66073;47.730;9.352;2023-05-07T07:39:58;96701.56;;;16.28;69.21
77120;BME280;66073;47.730;9.352;2023-05-07T07:42:23;96707.34;;;16.74;67.40
77120;BME280;66073;47.730;9.352;2023-05-07T07:44:49;96712.78;;;16.21;67.91
77120;BME280;66073;47.730;9.352;2023-05-07T07:47:15;96705.81;;;16.51;67.08
77120;BME280;66073;47.730;9.352;2023-05-07T07:49:40;96712.00;;;17.00;64.76
77120;BME280;66073;47.730;9.352;2023-05-07T07:52:06;96718.16;;;16.44;64.34
77120;BME280;66073;47.730;9.352;2023-05-07T07:54:33;96716.50;;;16.65;65.25
77120;BME280;66073;47.730;9.352;2023-05-07T07:56:59;96719.34;;;17.25;64.71
77120;BME280;66073;47.730;9.352;2023-05-07T07:59:24;96727.16;;;17.44;63.01
77120;BME280;66073;47.730;9.352;2023-05-07T08:01:51;96722.41;;;17.66;62.59
77120;BME280;66073;47.730;9.352;2023-05-07T08:04:17;96719.66;;;18.09;63.04
77120;BME280;66073;47.730;9.352;2023-05-07T08:06:42;96728.06;;;18.25;60.76
77120;BME280;66073;47.730;9.352;2023-05-07T08:09:08;96731.63;;;17.82;62.15
77120;BME280;66073;47.730;9.352;2023-05-07T08:11:34;96723.84;;;18.62;60.80
77120;BME280;66073;47.730;9.352;2023-05-07T08:13:59;96728.31;;;18.49;59.28
77120;BME280;66073;47.730;9.352;2023-05-07T08:16:25;96727.94;;;18.13;61.06
77120;BME280;66073;47.730;9.352;2023-05-07T08:18:52;96734.31;;;18.00;62.50
77120;BME280;66073;47.730;9.352;2023-05-07T08:21:17;96731.25;;;17.24;63.75
77120;BME280;66073;47.730;9.352;2023-05-07T08:23:43;96729.25;;;17.72;63.21
77120;BME280;66073;47.730;9.352;2023-05-07T08:26:09;96734.53;;;18.58;61.20
77120;BME280;66073;47.730;9.352;2023-05-07T08:28:35;96724.00;;;18.95;60.89
77120;BME280;66073;47.730;9.352;2023-05-07T08:31:00;96722.75;;;18.92;60.59
77120;BME280;66073;47.730;9.352;2023-05-07T08:33:26;96731.22;;;18.36;61.89
77120;BME280;66073;47.730;9.352;2023-05-07T08:35:52;96728.72;;;18.13;62.77
77120;BME280;66073;47.730;9.352;2023-05-07T08:38:17;96726.50;;;18.07;62.66
77120;BME280;66073;47.730;9.352;2023-05-07T08:40:43;96732.88;;;18.02;63.24
77120;BME280;66073;47.730;9.352;2023-05-07T08:43:12;96728.88;;;18.17;63.66
77120;BME280;66073;47.730;9.352;2023-05-07T08:45:40;96738.97;;;18.46;61.83
77120;BME280;66073;47.730;9.352;2023-05-07T08:48:09;96744.28;;;18.25;63.10
77120;BME280;66073;47.730;9.352;2023-05-07T08:50:39;96735.00;;;18.52;62.83
77120;BME280;66073;47.730;9.352;2023-05-07T08:53:05;96732.72;;;18.71;61.61
77120;BME280;66073;47.730;9.352;2023-05-07T08:55:31;96734.53;;;18.58;61.43
77120;BME280;66073;47.730;9.352;2023-05-07T08:57:57;96735.88;;;19.11;61.64
77120;BME280;66073;47.730;9.352;2023-05-07T09:00:22;96729.50;;;19.36;60.09
77120;BME280;66073;47.730;9.352;2023-05-07T09:02:48;96737.59;;;20.19;57.01
77120;BME280;66073;47.730;9.352;2023-05-07T09:05:13;96733.19;;;20.26;55.67
77120;BME280;66073;47.730;9.352;2023-05-07T09:07:39;96733.47;;;19.59;58.16
77120;BME280;66073;47.730;9.352;2023-05-07T09:10:05;96738.56;;;19.82;58.05
77120;BME280;66073;47.730;9.352;2023-05-07T09:12:31;96730.47;;;20.14;56.65
77120;BME280;66073;47.730;9.352;2023-05-07T09:14:57;96725.78;;;20.03;56.07
77120;BME280;66073;47.730;9.352;2023-05-07T09:17:23;96724.72;;;19.83;56.14
77120;BME280;66073;47.730;9.352;2023-05-07T09:19:49;96727.25;;;19.09;57.00
77120;BME280;66073;47.730;9.352;2023-05-07T09:22:14;96729.97;;;19.59;58.42
77120;BME280;66073;47.730;9.352;2023-05-07T09:24:40;96723.72;;;19.67;57.74
77120;BME280;66073;47.730;9.352;2023-05-07T09:27:07;96727.50;;;19.54;57.34
77120;BME280;66073;47.730;9.352;2023-05-07T09:29:34;96730.19;;;19.54;57.57
77120;BME280;66073;47.730;9.352;2023-05-07T09:32:03;96726.91;;;20.02;55.52
77120;BME280;66073;47.730;9.352;2023-05-07T09:34:29;96725.69;;;20.32;55.43
77120;BME280;66073;47.730;9.352;2023-05-07T09:36:57;96717.91;;;20.10;54.76
77120;BME280;66073;47.730;9.352;2023-05-07T09:39:24;96721.59;;;19.93;54.71
77120;BME280;66073;47.730;9.352;2023-05-07T09:41:49;96725.50;;;19.42;54.42
77120;BME280;66073;47.730;9.352;2023-05-07T09:44:18;96718.91;;;20.05;53.69
77120;BME280;66073;47.730;9.352;2023-05-07T09:46:44;96715.88;;;20.40;54.09
77120;BME280;66073;47.730;9.352;2023-05-07T09:49:23;96716.69;;;19.66;54.47
77120;BME280;66073;47.730;9.352;2023-05-07T09:51:51;96714.41;;;20.42;51.68
77120;BME280;66073;47.730;9.352;2023-05-07T09:54:17;96716.47;;;21.30;51.41
77120;BME280;66073;47.730;9.352;2023-05-07T09:56:44;96721.97;;;20.16;52.17
77120;BME280;66073;47.730;9.352;2023-05-07T09:59:13;96703.69;;;20.46;51.19
77120;BME280;66073;47.730;9.352;2023-05-07T10:01:41;96711.53;;;19.94;52.50
77120;BME280;66073;47.730;9.352;2023-05-07T10:04:08;96705.72;;;20.37;52.25
77120;BME280;66073;47.730;9.352;2023-05-07T10:06:37;96705.63;;;20.57;52.27
77120;BME280;66073;47.730;9.352;2023-05-07T10:09:05;96707.75;;;20.40;50.66
77120;BME280;66073;47.730;9.352;2023-05-07T10:11:33;96708.44;;;21.34;49.62
77120;BME280;66073;47.730;9.352;2023-05-07T10:13:59;96694.31;;;22.08;47.30
77120;BME280;66073;47.730;9.352;2023-05-07T10:16:29;96696.94;;;21.24;49.06
77120;BME280;66073;47.730;9.352;2023-05-07T10:18:57;96689.16;;;22.34;47.05
77120;BME280;66073;47.730;9.352;2023-05-07T10:21:24;96692.13;;;21.46;49.39
77120;BME280;66073;47.730;9.352;2023-05-07T10:24:01;96696.34;;;21.71;48.66
77120;BME280;66073;47.730;9.352;2023-05-07T10:26:32;96680.50;;;22.60;46.12
77120;BME280;66073;47.730;9.352;2023-05-07T10:29:06;96682.31;;;23.18;45.01
77120;BME280;66073;47.730;9.352;2023-05-07T10:34:19;96676.91;;;20.81;49.56
77120;BME280;66073;47.730;9.352;2023-05-07T10:36:47;96682.84;;;22.46;46.91
77120;BME280;66073;47.730;9.352;2023-05-07T10:39:14;96677.03;;;21.60;47.95
77120;BME280;66073;47.730;9.352;2023-05-07T10:41:39;96671.03;;;21.95;48.92
77120;BME280;66073;47.730;9.352;2023-05-07T10:44:05;96666.47;;;21.99;49.58
77120;BME280;66073;47.730;9.352;2023-05-07T10:46:31;96667.19;;;21.96;48.83
77120;BME280;66073;47.730;9.352;2023-05-07T10:51:26;96672.97;;;21.54;49.43
77120;BME280;66073;47.730;9.352;2023-05-07T10:56:43;96667.25;;;23.59;45.58
77120;BME280;66073;47.730;9.352;2023-05-07T11:01:59;96658.84;;;21.49;48.60
77120;BME280;66073;47.730;9.352;2023-05-07T11:04:27;96658.31;;;21.31;48.61
77120;BME280;66073;47.730;9.352;2023-05-07T11:10:04;96653.81;;;22.18;47.95
77120;BME280;66073;47.730;9.352;2023-05-07T11:15:05;96647.50;;;22.46;48.99
77120;BME280;66073;47.730;9.352;2023-05-07T11:17:31;96649.84;;;21.88;48.31
77120;BME280;66073;47.730;9.352;2023-05-07T11:20:00;96640.28;;;22.85;49.04
77120;BME280;66073;47.730;9.352;2023-05-07T11:25:08;96646.09;;;22.36;48.30
77120;BME280;66073;47.730;9.352;2023-05-07T11:27:33;96646.16;;;22.87;47.26
77120;BME280;66073;47.730;9.352;2023-05-07T11:29:59;96646.22;;;22.12;48.29
77120;BME280;66073;47.730;9.352;2023-05-07T11:32:28;96640.56;;;22.80;47.58
77120;BME280;66073;47.730;9.352;2023-05-07T11:34:55;96635.91;;;22.49;47.90
77120;BME280;66073;47.730;9.352;2023-05-07T11:37:23;96650.22;;;22.46;48.70
77120;BME280;66073;47.730;9.352;2023-05-07T11:39:49;96642.47;;;22.95;46.60
77120;BME280;66073;47.730;9.352;2023-05-07T11:42:29;96648.22;;;23.09;47.50
77120;BME280;66073;47.730;9.352;2023-05-07T11:44:55;96642.94;;;23.89;44.38
77120;BME280;66073;47.730;9.352;2023-05-07T11:47:21;96658.44;;;22.18;47.14
77120;BME280;66073;47.730;9.352;2023-05-07T11:49:48;96637.47;;;22.34;47.42
77120;BME280;66073;47.730;9.352;2023-05-07T11:52:15;96635.09;;;22.80;46.68
77120;BME280;66073;47.730;9.352;2023-05-07T11:54:40;96639.75;;;22.16;48.63
77120;BME280;66073;47.730;9.352;2023-05-07T11:57:06;96638.13;;;23.09;49.21
77120;BME280;66073;47.730;9.352;2023-05-07T11:59:39;96629.75;;;21.49;50.58
77120;BME280;66073;47.730;9.352;2023-05-07T12:02:10;96628.19;;;23.17;49.23
77120;BME280;66073;47.730;9.352;2023-05-07T12:04:35;96630.94;;;23.55;46.53
77120;BME280;66073;47.730;9.352;2023-05-07T12:07:01;96629.84;;;23.98;46.17
77120;BME280;66073;47.730;9.352;2023-05-07T12:09:27;96631.28;;;24.34;44.77
77120;BME280;66073;47.730;9.352;2023-05-07T12:11:53;96632.03;;;24.31;44.69
77120;BME280;66073;47.730;9.352;2023-05-07T12:14:18;96632.88;;;24.35;45.22
77120;BME280;66073;47.730;9.352;2023-05-07T12:16:45;96629.03;;;24.85;43.57
77120;BME280;66073;47.730;9.352;2023-05-07T12:19:11;96624.09;;;24.03;45.35
77120;BME280;66073;47.730;9.352;2023-05-07T12:21:40;96624.06;;;23.42;46.15
77120;BME280;66073;47.730;9.352;2023-05-07T12:24:06;96616.38;;;23.86;45.74
77120;BME280;66073;47.730;9.352;2023-05-07T12:26:37;96624.00;;;23.04;45.90
77120;BME280;66073;47.730;9.352;2023-05-07T12:29:03;96617.41;;;24.20;43.71
77120;BME280;66073;47.730;9.352;2023-05-07T12:31:29;96612.03;;;23.43;46.08
77120;BME280;66073;47.730;9.352;2023-05-07T12:33:54;96610.72;;;22.67;48.28
77120;BME280;66073;47.730;9.352;2023-05-07T12:36:20;96610.66;;;23.72;45.82
77120;BME280;66073;47.730;9.352;2023-05-07T12:38:49;96618.31;;;23.28;47.64
77120;BME280;66073;47.730;9.352;2023-05-07T12:41:15;96606.25;;;23.10;47.65
77120;BME280;66073;47.730;9.352;2023-05-07T12:43:44;96610.09;;;23.09;47.45
77120;BME280;66073;47.730;9.352;2023-05-07T12:46:10;96600.91;;;22.98;47.58
77120;BME280;66073;47.730;9.352;2023-05-07T12:48:43;96601.25;;;23.69;46.63
77120;BME280;66073;47.730;9.352;2023-05-07T12:51:09;96602.47;;;22.48;48.39
77120;BME280;66073;47.730;9.352;2023-05-07T12:53:40;96606.53;;;22.54;49.38
77120;BME280;66073;47.730;9.352;2023-05-07T12:56:07;96605.50;;;24.09;44.73
77120;BME280;66073;47.730;9.352;2023-05-07T12:58:35;96606.00;;;24.60;41.69
77120;BME280;66073;47.730;9.352;2023-05-07T13:01:06;96600.94;;;24.85;42.23
77120;BME280;66073;47.730;9.352;2023-05-07T13:03:36;96602.00;;;24.54;43.96
77120;BME280;66073;47.730;9.352;2023-05-07T13:06:07;96603.31;;;25.16;41.73
77120;BME280;66073;47.730;9.352;2023-05-07T13:08:39;96600.69;;;24.71;40.75
77120;BME280;66073;47.730;9.352;2023-05-07T13:11:08;96597.34;;;25.07;41.02
77120;BME280;66073;47.730;9.352;2023-05-07T13:13:35;96590.22;;;24.50;42.50
77120;BME280;66073;47.730;9.352;2023-05-07T13:16:02;96589.22;;;23.51;44.33